BarenTS Sea — 9VAP5 — position and weather

sailwx.info

Track history (hours):
 
Tides and Currents Weather Stations Pressure Air Temp Water Temp Dewpoint Dewpoint Depression Visibility Wind Speed Wind Dir Waves Ship Positions

BarenTS Sea

Last reported at 2016-Dec-09 17:33 UTC. Time now 2017-Feb-25 11:46 UTC.
Position N 02°01' E 102°11'.
Warning: this ship's position is months out of date.

Length 248 m; draft 8.1 m.

Type: Tanker. MMSI: 563909000.

Date/timePositionNaut miles runAvg speedWind from/ knotsBaromVisibWave heightAir tempDewpointWater temp
2016-Dec-09 17:33N 02°01' E 102°11'1211.5
2016-Dec-09 16:33N 01°54' E 102°21'1212.1
2016-Dec-09 15:33N 01°50' E 102°32'1312.3
2016-Dec-09 14:29N 01°44' E 102°44'6911.2
2016-Dec-09 08:15N 01°08' E 103°44'811.1
2016-Dec-09 07:33N 01°12' E 103°51'6 5.9
2016-Dec-09 06:33N 01°17' E 103°55'0 0.4
2016-Dec-09 05:22N 01°17' E 103°55'0 0.1
2016-Dec-09 04:34N 01°17' E 103°55'0 0.0
2016-Dec-09 03:34N 01°17' E 103°55'0 0.0
2016-Dec-09 02:31N 01°17' E 103°55'0 0.0
2016-Dec-09 01:10N 01°17' E 103°55'0 0.1
2016-Dec-09 00:04N 01°17' E 103°55'0 0.1
2016-Dec-08 23:31N 01°17' E 103°55'0 0.0
2016-Dec-08 22:25N 01°17' E 103°55'0 0.1
2016-Dec-08 21:28N 01°17' E 103°55'0 0.0
2016-Dec-08 20:28N 01°17' E 103°55'0 0.0
2016-Dec-08 19:13N 01°17' E 103°55'0 0.0
2016-Dec-08 18:31N 01°17' E 103°55'0 0.1
2016-Dec-08 17:34N 01°17' E 103°55'0 0.1
2016-Dec-08 16:31N 01°17' E 103°55'0 0.0
2016-Dec-08 15:25N 01°17' E 103°55'0 0.0
2016-Dec-08 14:25N 01°17' E 103°55'0 0.0
2016-Dec-08 13:28N 01°17' E 103°55'0 0.0
2016-Dec-08 12:31N 01°17' E 103°55'0 0.1
2016-Dec-08 11:31N 01°17' E 103°55'0 0.0
2016-Dec-08 10:34N 01°17' E 103°55'0 0.0
2016-Dec-08 09:34N 01°17' E 103°55'0 0.1
2016-Dec-08 08:34N 01°17' E 103°55'0 0.0
2016-Dec-08 07:31N 01°17' E 103°55'0 0.2
2016-Dec-08 06:34N 01°17' E 103°55'0 0.1
2016-Dec-08 05:28N 01°17' E 103°55'0 0.1
2016-Dec-08 04:31N 01°17' E 103°55'0 0.0
2016-Dec-08 03:25N 01°17' E 103°55'0 0.3
2016-Dec-08 02:34N 01°17' E 103°55'7 6.7
2016-Dec-08 01:32N 01°12' E 103°50'8 8.7
2016-Dec-08 00:33N 01°15' E 103°42'  
2016-Dec-05 20:32N 01°11' E 103°42'0 0.0
2016-Dec-04 15:23N 01°12' E 103°42'3 0.1
2016-Dec-02 23:08N 01°13' E 103°40'8 5.2
2016-Dec-02 21:32N 01°10' E 103°47'1010.2
2016-Dec-02 20:33N 01°16' E 103°56'1 1.0
2016-Dec-02 19:14N 01°15' E 103°54'0 0.0
2016-Dec-02 18:32N 01°15' E 103°54'0 0.1
2016-Dec-02 17:23N 01°15' E 103°54'0 0.1
2016-Dec-02 16:32N 01°16' E 103°54'0 0.0
2016-Dec-02 08:26N 01°16' E 103°55'0 0.0
2016-Dec-02 05:29N 01°16' E 103°55'0 0.1
2016-Dec-02 04:32N 01°15' E 103°55'0 0.1
2016-Dec-02 02:29N 01°15' E 103°54'0 0.0
2016-Dec-02 01:23N 01°15' E 103°54'0 0.0
2016-Dec-02 00:29N 01°15' E 103°54'0 0.0
2016-Dec-01 23:29N 01°15' E 103°54'0 0.0
2016-Dec-01 22:17N 01°15' E 103°54'0 0.0
2016-Dec-01 20:17N 01°15' E 103°54'0 0.1
2016-Dec-01 19:29N 01°15' E 103°54'0 0.1
2016-Dec-01 18:23N 01°15' E 103°54'0 0.0
2016-Dec-01 17:05N 01°15' E 103°54'0 0.0
2016-Dec-01 16:20N 01°15' E 103°54'0 0.1
2016-Dec-01 14:23N 01°16' E 103°55'0 0.0
2016-Dec-01 08:29N 01°16' E 103°55'0 0.0
2016-Dec-01 07:29N 01°16' E 103°55'0 0.0
2016-Dec-01 06:32N 01°16' E 103°55'0 0.1
2016-Dec-01 03:29N 01°15' E 103°54'0 0.0
2016-Dec-01 02:29N 01°15' E 103°54'0 0.0
2016-Dec-01 01:23N 01°15' E 103°54'0 0.0
2016-Nov-30 23:26N 01°15' E 103°54'0 0.0
2016-Nov-30 22:17N 01°15' E 103°54'0 0.0
2016-Nov-30 21:32N 01°15' E 103°54'0 0.0
2016-Nov-30 20:26N 01°15' E 103°54'0 0.0
2016-Nov-30 19:29N 01°15' E 103°54'0 0.0
2016-Nov-30 18:29N 01°15' E 103°54'0 0.0
2016-Nov-30 17:26N 01°15' E 103°54'0 0.0
2016-Nov-30 16:20N 01°15' E 103°54'0 0.0
2016-Nov-30 14:20N 01°15' E 103°54'0 0.1
2016-Nov-30 12:29N 01°16' E 103°55'0 0.0
2016-Nov-30 10:20N 01°16' E 103°54'0 0.0
2016-Nov-30 08:11N 01°16' E 103°55'0 0.1
2016-Nov-30 04:29N 01°15' E 103°55'1 0.4
2016-Nov-30 02:33N 01°15' E 103°54'5 2.5
2016-Nov-30 00:25N 01°11' E 103°51'  
Track history (hours):
 
Tides and Currents Weather Stations Pressure Air Temp Water Temp Dewpoint Dewpoint Depression Visibility Wind Speed Wind Dir Waves Ship Positions

BarenTS Sea

Last reported at 2016-Dec-09 17:33 UTC. Time now 2017-Feb-25 11:46 UTC.
Position N 02°01' E 102°11'.
Warning: this ship's position is months out of date.

Length 248 m; draft 8.1 m.

Type: Tanker. MMSI: 563909000.

Date/timePositionNaut miles runAvg speedWind from/ knotsBaromVisibWave heightAir tempDewpointWater temp
2016-Dec-09 17:33N 02°01' E 102°11'1211.5
2016-Dec-09 16:33N 01°54' E 102°21'1212.1
2016-Dec-09 15:33N 01°50' E 102°32'1312.3
2016-Dec-09 14:29N 01°44' E 102°44'6911.2
2016-Dec-09 08:15N 01°08' E 103°44'811.1
2016-Dec-09 07:33N 01°12' E 103°51'6 5.9
2016-Dec-09 06:33N 01°17' E 103°55'0 0.4
2016-Dec-09 05:22N 01°17' E 103°55'0 0.1
2016-Dec-09 04:34N 01°17' E 103°55'0 0.0
2016-Dec-09 03:34N 01°17' E 103°55'0 0.0
2016-Dec-09 02:31N 01°17' E 103°55'0 0.0
2016-Dec-09 01:10N 01°17' E 103°55'0 0.1
2016-Dec-09 00:04N 01°17' E 103°55'0 0.1
2016-Dec-08 23:31N 01°17' E 103°55'0 0.0
2016-Dec-08 22:25N 01°17' E 103°55'0 0.1
2016-Dec-08 21:28N 01°17' E 103°55'0 0.0
2016-Dec-08 20:28N 01°17' E 103°55'0 0.0
2016-Dec-08 19:13N 01°17' E 103°55'0 0.0
2016-Dec-08 18:31N 01°17' E 103°55'0 0.1
2016-Dec-08 17:34N 01°17' E 103°55'0 0.1
2016-Dec-08 16:31N 01°17' E 103°55'0 0.0
2016-Dec-08 15:25N 01°17' E 103°55'0 0.0
2016-Dec-08 14:25N 01°17' E 103°55'0 0.0
2016-Dec-08 13:28N 01°17' E 103°55'0 0.0
2016-Dec-08 12:31N 01°17' E 103°55'0 0.1
2016-Dec-08 11:31N 01°17' E 103°55'0 0.0
2016-Dec-08 10:34N 01°17' E 103°55'0 0.0
2016-Dec-08 09:34N 01°17' E 103°55'0 0.1
2016-Dec-08 08:34N 01°17' E 103°55'0 0.0
2016-Dec-08 07:31N 01°17' E 103°55'0 0.2
2016-Dec-08 06:34N 01°17' E 103°55'0 0.1
2016-Dec-08 05:28N 01°17' E 103°55'0 0.1
2016-Dec-08 04:31N 01°17' E 103°55'0 0.0
2016-Dec-08 03:25N 01°17' E 103°55'0 0.3
2016-Dec-08 02:34N 01°17' E 103°55'7 6.7
2016-Dec-08 01:32N 01°12' E 103°50'8 8.7
2016-Dec-08 00:33N 01°15' E 103°42'  
2016-Dec-05 20:32N 01°11' E 103°42'0 0.0
2016-Dec-04 15:23N 01°12' E 103°42'3 0.1
2016-Dec-02 23:08N 01°13' E 103°40'8 5.2
2016-Dec-02 21:32N 01°10' E 103°47'1010.2
2016-Dec-02 20:33N 01°16' E 103°56'1 1.0
2016-Dec-02 19:14N 01°15' E 103°54'0 0.0
2016-Dec-02 18:32N 01°15' E 103°54'0 0.1
2016-Dec-02 17:23N 01°15' E 103°54'0 0.1
2016-Dec-02 16:32N 01°16' E 103°54'0 0.0
2016-Dec-02 08:26N 01°16' E 103°55'0 0.0
2016-Dec-02 05:29N 01°16' E 103°55'0 0.1
2016-Dec-02 04:32N 01°15' E 103°55'0 0.1
2016-Dec-02 02:29N 01°15' E 103°54'0 0.0
2016-Dec-02 01:23N 01°15' E 103°54'0 0.0
2016-Dec-02 00:29N 01°15' E 103°54'0 0.0
2016-Dec-01 23:29N 01°15' E 103°54'0 0.0
2016-Dec-01 22:17N 01°15' E 103°54'0 0.0
2016-Dec-01 20:17N 01°15' E 103°54'0 0.1
2016-Dec-01 19:29N 01°15' E 103°54'0 0.1
2016-Dec-01 18:23N 01°15' E 103°54'0 0.0
2016-Dec-01 17:05N 01°15' E 103°54'0 0.0
2016-Dec-01 16:20N 01°15' E 103°54'0 0.1
2016-Dec-01 14:23N 01°16' E 103°55'0 0.0
2016-Dec-01 08:29N 01°16' E 103°55'0 0.0
2016-Dec-01 07:29N 01°16' E 103°55'0 0.0
2016-Dec-01 06:32N 01°16' E 103°55'0 0.1
2016-Dec-01 03:29N 01°15' E 103°54'0 0.0
2016-Dec-01 02:29N 01°15' E 103°54'0 0.0
2016-Dec-01 01:23N 01°15' E 103°54'0 0.0
2016-Nov-30 23:26N 01°15' E 103°54'0 0.0
2016-Nov-30 22:17N 01°15' E 103°54'0 0.0
2016-Nov-30 21:32N 01°15' E 103°54'0 0.0
2016-Nov-30 20:26N 01°15' E 103°54'0 0.0
2016-Nov-30 19:29N 01°15' E 103°54'0 0.0
2016-Nov-30 18:29N 01°15' E 103°54'0 0.0
2016-Nov-30 17:26N 01°15' E 103°54'0 0.0
2016-Nov-30 16:20N 01°15' E 103°54'0 0.0
2016-Nov-30 14:20N 01°15' E 103°54'0 0.1
2016-Nov-30 12:29N 01°16' E 103°55'0 0.0
2016-Nov-30 10:20N 01°16' E 103°54'0 0.0
2016-Nov-30 08:11N 01°16' E 103°55'0 0.1
2016-Nov-30 04:29N 01°15' E 103°55'1 0.4
2016-Nov-30 02:33N 01°15' E 103°54'5 2.5
2016-Nov-30 00:25N 01°11' E 103°51'  

Dump ship's entire track history